createdAt,value
2023-03-02T08:29:14.964Z,0.90
2023-03-02T08:31:41.683Z,1.00
2023-03-02T08:34:08.617Z,1.00
2023-03-02T08:36:35.561Z,1.10
2023-03-02T08:39:02.517Z,1.10
2023-03-02T08:41:29.478Z,1.20
2023-03-02T08:43:56.670Z,1.30
2023-03-02T08:46:23.360Z,1.30
2023-03-02T08:48:51.278Z,1.40
2023-03-02T08:51:21.894Z,1.40
2023-03-02T08:53:51.143Z,1.50
2023-03-02T08:56:24.229Z,1.50
2023-03-02T08:58:52.613Z,1.70
2023-03-02T09:01:25.447Z,1.80
2023-03-02T09:03:52.724Z,1.80
2023-03-02T09:06:19.458Z,1.90
2023-03-02T09:08:46.999Z,2.00
2023-03-02T09:11:13.863Z,2.00
2023-03-02T09:13:41.653Z,2.10
2023-03-02T09:16:08.980Z,2.20
2023-03-02T09:18:36.580Z,2.20
2023-03-02T09:21:03.866Z,2.30
2023-03-02T09:23:31.159Z,2.40
2023-03-02T09:25:57.828Z,2.50
2023-03-02T09:28:25.243Z,2.60
2023-03-02T09:30:53.903Z,2.60
2023-03-02T09:33:21.241Z,2.70
2023-03-02T09:35:47.917Z,2.80
2023-03-02T09:38:17.023Z,2.80
2023-03-02T09:40:50.012Z,2.90
2023-03-02T09:43:40.748Z,2.90
2023-03-02T09:46:35.132Z,3.00
2023-03-02T09:49:17.417Z,3.10
2023-03-02T09:51:54.793Z,3.20
2023-03-02T09:54:25.767Z,3.30
2023-03-02T09:56:57.980Z,3.40
2023-03-02T10:00:01.631Z,3.50
2023-03-02T10:02:45.807Z,3.60
2023-03-02T10:05:23.348Z,3.70
2023-03-02T10:07:50.280Z,3.80
2023-03-02T10:10:28.443Z,3.90
2023-03-02T10:13:05.918Z,4.10
2023-03-02T10:16:05.513Z,4.10
2023-03-02T10:19:04.933Z,4.20
2023-03-02T10:21:41.250Z,4.30
2023-03-02T10:24:11.539Z,4.50
2023-03-02T10:26:46.611Z,4.60
2023-03-02T10:29:34.452Z,4.60
2023-03-02T10:32:21.132Z,4.70
2023-03-02T10:34:50.145Z,4.90
2023-03-02T10:37:28.390Z,5.00
2023-03-02T10:39:56.424Z,5.10
2023-03-02T10:42:40.295Z,5.10
2023-03-02T10:45:29.727Z,5.10
2023-03-02T10:48:05.078Z,5.20
2023-03-02T10:50:32.360Z,5.40
2023-03-02T10:53:04.816Z,5.40
2023-03-02T10:55:33.891Z,5.60
2023-03-02T10:58:06.584Z,5.70
2023-03-02T11:00:36.806Z,5.80
2023-03-02T11:03:21.001Z,5.90
2023-03-02T11:05:47.913Z,6.00
2023-03-02T11:08:28.766Z,6.10
2023-03-02T11:11:01.577Z,6.20
2023-03-02T11:13:35.495Z,6.30
2023-03-02T11:16:29.238Z,6.30
2023-03-02T11:19:05.579Z,6.40
2023-03-02T11:21:38.328Z,6.60
2023-03-02T11:24:16.921Z,6.60
2023-03-02T11:26:55.683Z,6.80
2023-03-02T11:29:37.344Z,6.90
2023-03-02T11:32:30.800Z,7.00
2023-03-02T11:35:24.571Z,7.00
2023-03-02T11:37:54.770Z,7.20
2023-03-02T11:40:35.083Z,7.30
2023-03-02T11:43:04.861Z,7.40
2023-03-02T11:45:41.868Z,7.60
2023-03-02T11:48:23.646Z,7.70
2023-03-02T11:51:01.812Z,7.90
2023-03-02T11:53:53.014Z,7.90
2023-03-02T11:56:19.974Z,8.00
2023-03-02T11:58:53.502Z,8.20
2023-03-02T12:01:28.007Z,8.20
2023-03-02T12:06:41.032Z,8.50
2023-03-02T12:09:28.524Z,8.50
2023-03-02T12:11:56.700Z,8.60
2023-03-02T12:14:35.337Z,8.80
2023-03-02T12:17:25.240Z,8.90
2023-03-02T12:20:07.008Z,9.00
2023-03-02T12:22:35.394Z,9.00
2023-03-02T12:25:28.283Z,8.90
2023-03-02T12:27:55.830Z,8.90
2023-03-02T12:30:26.649Z,9.10
2023-03-02T12:33:16.547Z,9.30
2023-03-02T12:35:43.739Z,9.40
2023-03-02T12:38:39.460Z,9.50
2023-03-02T12:41:22.536Z,9.60
2023-03-02T12:44:01.233Z,10.00
2023-03-02T12:46:33.325Z,10.00
2023-03-02T12:49:21.624Z,10.00
2023-03-02T12:52:22.776Z,10.30
2023-03-02T12:55:07.648Z,10.60
2023-03-02T12:57:39.067Z,10.80
2023-03-02T13:00:15.268Z,11.10
2023-03-02T13:02:47.771Z,11.40
2023-03-02T13:05:20.788Z,11.50
2023-03-02T13:08:04.910Z,11.50
2023-03-02T13:10:42.815Z,11.60
2023-03-02T13:13:27.829Z,12.00
2023-03-02T13:16:14.680Z,11.90
2023-03-02T13:18:41.869Z,12.10
2023-03-02T13:21:13.140Z,12.20
2023-03-02T13:23:50.225Z,12.70
2023-03-02T13:26:35.230Z,12.80
2023-03-02T13:29:31.011Z,13.00
2023-03-02T13:32:07.761Z,13.10
2023-03-02T13:34:35.108Z,13.10
2023-03-02T13:37:13.882Z,13.10
2023-03-02T13:39:40.603Z,13.30
2023-03-02T13:42:24.337Z,13.20
2023-03-02T13:44:51.978Z,13.50
2023-03-02T13:47:24.095Z,13.90
2023-03-02T13:49:50.945Z,13.80
2023-03-02T13:52:30.437Z,13.70
2023-03-02T13:54:57.084Z,14.20
2023-03-02T13:57:33.541Z,14.60
2023-03-02T14:00:00.877Z,14.40
2023-03-02T14:02:29.522Z,14.50
2023-03-02T14:04:57.664Z,14.20
2023-03-02T14:07:24.455Z,14.50
2023-03-02T14:09:56.616Z,14.80
2023-03-02T14:12:34.797Z,14.80
2023-03-02T14:15:03.184Z,14.90
2023-03-02T14:17:30.106Z,14.80
2023-03-02T14:19:56.933Z,15.00
2023-03-02T14:22:26.520Z,15.10
2023-03-02T14:24:53.658Z,15.50
2023-03-02T14:27:20.769Z,15.10
2023-03-02T14:29:47.684Z,15.20
2023-03-02T14:32:15.334Z,15.30
2023-03-02T14:34:42.379Z,15.60
2023-03-02T14:37:16.220Z,15.70
2023-03-02T14:39:48.086Z,15.80
2023-03-02T14:42:17.103Z,15.60
2023-03-02T14:44:46.356Z,15.50
2023-03-02T14:47:16.646Z,15.20
2023-03-02T14:49:53.736Z,15.00
2023-03-02T14:52:28.050Z,14.80
2023-03-02T14:54:56.998Z,14.80
2023-03-02T14:57:26.708Z,15.10
2023-03-02T14:59:54.006Z,14.90
2023-03-02T15:02:26.128Z,14.50
2023-03-02T15:04:56.617Z,14.40
2023-03-02T15:07:25.368Z,14.40
2023-03-02T15:09:52.057Z,14.50
2023-03-02T15:12:18.798Z,14.90
2023-03-02T15:14:48.599Z,14.50
2023-03-02T15:17:15.266Z,14.30
2023-03-02T15:19:42.216Z,14.80
2023-03-02T15:22:08.976Z,14.40
2023-03-02T15:24:35.742Z,14.40
2023-03-02T15:27:02.361Z,14.60
2023-03-02T15:29:28.999Z,14.60
2023-03-02T15:31:55.822Z,14.30
2023-03-02T15:34:22.629Z,14.50
2023-03-02T15:36:49.380Z,14.60
2023-03-02T15:39:16.758Z,14.40
2023-03-02T15:41:46.721Z,14.30
2023-03-02T15:44:21.905Z,13.50
2023-03-02T15:46:59.456Z,13.60
2023-03-02T15:49:28.485Z,13.70
2023-03-02T15:51:57.655Z,13.60
2023-03-02T15:54:28.490Z,13.70
2023-03-02T15:56:55.834Z,13.40
2023-03-02T15:59:25.168Z,13.70
2023-03-02T16:01:52.189Z,13.00
2023-03-02T16:04:19.259Z,13.20
2023-03-02T16:06:47.901Z,13.30
2023-03-02T16:09:14.556Z,12.90
2023-03-02T16:11:41.381Z,12.90
2023-03-02T16:14:08.266Z,13.10
2023-03-02T16:16:35.550Z,13.10
2023-03-02T16:19:02.240Z,12.70
2023-03-02T16:21:41.655Z,12.20
2023-03-02T16:24:14.105Z,12.00
2023-03-02T16:26:40.744Z,11.60
2023-03-02T16:29:10.360Z,11.60
2023-03-02T16:31:38.401Z,11.30
2023-03-02T16:34:08.793Z,11.30
2023-03-02T16:36:37.949Z,10.90
2023-03-02T16:39:06.523Z,11.00
2023-03-02T16:41:33.646Z,10.70
2023-03-02T16:44:01.369Z,10.50
2023-03-02T16:46:31.141Z,10.50
2023-03-02T16:49:01.778Z,10.40
2023-03-02T16:51:29.655Z,10.10
2023-03-02T16:53:58.267Z,9.90
2023-03-02T16:56:25.492Z,10.00
2023-03-02T16:58:55.665Z,9.90
2023-03-02T17:01:23.123Z,9.80
2023-03-02T17:03:53.237Z,9.70
2023-03-02T17:06:22.338Z,9.60
2023-03-02T17:08:50.808Z,9.60
2023-03-02T17:11:17.952Z,9.40
2023-03-02T17:13:44.718Z,9.40
2023-03-02T17:16:11.899Z,9.10
2023-03-02T17:18:38.718Z,9.00
2023-03-02T17:21:05.849Z,9.00
2023-03-02T17:23:35.789Z,9.00
2023-03-02T17:26:13.511Z,9.00
2023-03-02T17:28:41.435Z,8.90
2023-03-02T17:31:09.250Z,8.90
2023-03-02T17:33:37.672Z,8.70
2023-03-02T17:36:10.687Z,8.60
2023-03-02T17:38:37.870Z,8.40
2023-03-02T17:41:06.128Z,8.30
2023-03-02T17:43:35.510Z,8.20
2023-03-02T17:46:22.567Z,8.10
2023-03-02T17:48:54.058Z,7.90
2023-03-02T17:51:22.241Z,7.90
2023-03-02T17:53:50.436Z,7.70
2023-03-02T17:56:21.933Z,7.80
2023-03-02T17:58:57.466Z,7.80
2023-03-02T18:01:24.738Z,7.60
2023-03-02T18:03:51.525Z,7.60
2023-03-02T18:06:20.444Z,7.50
2023-03-02T18:08:48.979Z,7.50
2023-03-02T18:11:16.932Z,7.40
2023-03-02T18:13:43.627Z,7.20
2023-03-02T18:16:12.182Z,7.20
2023-03-02T18:18:38.918Z,7.20
2023-03-02T18:21:05.871Z,7.10
2023-03-02T18:23:32.941Z,7.10
2023-03-02T18:25:59.619Z,7.10
2023-03-02T18:28:26.486Z,7.00
2023-03-02T18:30:53.194Z,6.80
2023-03-02T18:33:19.964Z,6.80
2023-03-02T18:35:46.775Z,6.70
2023-03-02T18:38:13.475Z,6.70
2023-03-02T18:40:40.440Z,6.60
2023-03-02T18:43:07.041Z,6.60
2023-03-02T18:45:34.026Z,6.50
2023-03-02T18:48:01.118Z,6.40
2023-03-02T18:50:28.351Z,6.60
2023-03-02T18:52:55.047Z,6.50
2023-03-02T18:55:24.281Z,6.40
2023-03-02T18:57:53.880Z,6.40
2023-03-02T19:00:27.341Z,6.30
2023-03-02T19:02:55.026Z,6.10
2023-03-02T19:05:21.761Z,6.10
2023-03-02T19:07:50.090Z,6.00
2023-03-02T19:10:19.506Z,6.10
2023-03-02T19:12:47.159Z,6.00
2023-03-02T19:15:13.954Z,6.00
2023-03-02T19:17:45.172Z,5.90
2023-03-02T19:20:16.540Z,5.90
2023-03-02T19:22:43.209Z,5.80
2023-03-02T19:25:10.714Z,5.80
2023-03-02T19:27:37.730Z,5.80
2023-03-02T19:30:09.055Z,5.80
2023-03-02T19:32:37.228Z,5.80
2023-03-02T19:35:05.977Z,5.60
2023-03-02T19:37:33.330Z,5.60
2023-03-02T19:40:00.180Z,5.60
2023-03-02T19:42:28.054Z,5.50
2023-03-02T19:44:54.718Z,5.50
2023-03-02T19:47:21.319Z,5.40
2023-03-02T19:49:47.956Z,5.40
2023-03-02T19:52:14.540Z,5.40
2023-03-02T19:54:43.458Z,5.30
2023-03-02T19:57:10.297Z,5.20
2023-03-02T19:59:39.651Z,5.20
2023-03-02T20:02:06.384Z,5.20
2023-03-02T20:04:33.693Z,5.20
2023-03-02T20:07:02.997Z,5.20
2023-03-02T20:09:29.901Z,5.10
2023-03-02T20:11:58.730Z,5.10
2023-03-02T20:14:33.802Z,5.10
2023-03-02T20:17:04.552Z,5.00
2023-03-02T20:19:31.422Z,5.00
2023-03-02T20:21:58.102Z,5.00
2023-03-02T20:24:24.819Z,4.90
2023-03-02T20:26:51.441Z,4.90
2023-03-02T20:29:18.913Z,4.80
2023-03-02T20:31:45.763Z,4.80
2023-03-02T20:34:15.863Z,4.80
2023-03-02T20:36:44.342Z,4.80
2023-03-02T20:39:16.190Z,4.80
2023-03-02T20:41:43.607Z,4.70
2023-03-02T20:44:13.439Z,4.70
2023-03-02T20:46:45.793Z,4.50
2023-03-02T20:49:15.349Z,4.50
2023-03-02T20:51:49.178Z,4.40
2023-03-02T20:54:16.809Z,4.40
2023-03-02T20:56:43.426Z,4.30
2023-03-02T20:59:10.308Z,4.30
2023-03-02T21:01:37.113Z,4.30
2023-03-02T21:04:04.037Z,4.20
2023-03-02T21:06:33.350Z,4.20
2023-03-02T21:09:04.216Z,4.30
2023-03-02T21:11:31.060Z,4.30
2023-03-02T21:13:59.524Z,4.20
2023-03-02T21:16:36.909Z,4.10
2023-03-02T21:19:08.733Z,4.10
2023-03-02T21:21:41.810Z,4.10
2023-03-02T21:24:11.099Z,4.10
2023-03-02T21:26:38.170Z,4.00
2023-03-02T21:29:05.646Z,4.00
2023-03-02T21:31:32.963Z,4.00
2023-03-02T21:34:00.634Z,3.90
2023-03-02T21:36:28.137Z,3.90
2023-03-02T21:38:55.120Z,3.90
2023-03-02T21:41:22.260Z,3.90
2023-03-02T21:43:49.491Z,3.80
2023-03-02T21:46:20.071Z,3.70
2023-03-02T21:48:47.125Z,3.70
2023-03-02T21:51:14.655Z,3.80
2023-03-02T21:53:41.845Z,3.70
2023-03-02T21:56:09.369Z,3.70
2023-03-02T21:58:35.972Z,3.60
2023-03-02T22:01:02.724Z,3.70
2023-03-02T22:03:29.435Z,3.70
2023-03-02T22:05:56.206Z,3.60
2023-03-02T22:08:22.797Z,3.50
2023-03-02T22:10:51.445Z,3.50
2023-03-02T22:13:27.056Z,3.50
2023-03-02T22:16:11.639Z,3.50
2023-03-02T22:18:38.831Z,3.50
2023-03-02T22:21:20.677Z,3.40
2023-03-02T22:23:47.432Z,3.30
2023-03-02T22:26:16.863Z,3.30
2023-03-02T22:28:43.773Z,3.30
2023-03-02T22:31:22.003Z,3.20
2023-03-02T22:33:49.984Z,3.20
2023-03-02T22:36:22.451Z,3.20
2023-03-02T22:38:49.773Z,3.30
2023-03-02T22:41:19.376Z,3.20
2023-03-02T22:43:46.492Z,3.20
2023-03-02T22:46:17.243Z,3.10
2023-03-02T22:48:46.437Z,3.10
2023-03-02T22:51:14.990Z,3.10
2023-03-02T22:53:48.197Z,3.00
2023-03-02T22:56:30.401Z,3.00
2023-03-02T22:59:09.195Z,3.00
2023-03-02T23:01:40.582Z,3.00
2023-03-02T23:04:30.113Z,3.00
2023-03-02T23:07:02.571Z,3.00
2023-03-02T23:09:32.336Z,3.00
2023-03-02T23:12:09.846Z,3.00
2023-03-02T23:14:52.172Z,2.90
2023-03-02T23:17:22.248Z,2.90
2023-03-02T23:19:51.449Z,2.90
2023-03-02T23:22:19.087Z,2.90
2023-03-02T23:24:45.826Z,2.80
2023-03-02T23:27:12.559Z,2.80
2023-03-02T23:29:39.699Z,2.70
2023-03-02T23:32:06.575Z,2.70
2023-03-02T23:34:33.303Z,2.80
2023-03-02T23:37:00.429Z,2.70
2023-03-02T23:39:27.409Z,2.70
